createdAt,value
2018-07-31T00:00:04.946Z,64.20
2018-07-31T00:02:32.267Z,64.20
2018-07-31T00:04:59.591Z,64.60
2018-07-31T00:07:26.906Z,64.50
2018-07-31T00:09:54.442Z,65.70
2018-07-31T00:12:21.797Z,65.30
2018-07-31T00:14:49.115Z,66.10
2018-07-31T00:17:17.068Z,67.20
2018-07-31T00:19:44.390Z,66.40
2018-07-31T00:24:38.929Z,66.80
2018-07-31T00:27:06.274Z,66.60
2018-07-31T00:29:33.627Z,66.10
2018-07-31T00:32:00.923Z,66.00
2018-07-31T00:34:28.249Z,67.00
2018-07-31T00:36:55.554Z,66.40
2018-07-31T00:39:22.951Z,66.80
2018-07-31T00:41:50.270Z,67.40
2018-07-31T00:44:17.594Z,67.90
2018-07-31T00:46:44.912Z,67.60
2018-07-31T00:49:12.219Z,67.60
2018-07-31T00:51:39.530Z,67.50
2018-07-31T00:54:06.901Z,68.70
2018-07-31T00:56:34.205Z,68.00
2018-07-31T00:59:01.498Z,68.20
2018-07-31T01:01:28.836Z,67.50
2018-07-31T01:03:56.142Z,67.50
2018-07-31T01:06:23.534Z,67.70
2018-07-31T01:08:50.875Z,67.20
2018-07-31T01:11:18.208Z,67.50
2018-07-31T01:13:46.097Z,67.70
2018-07-31T01:16:13.403Z,67.70
2018-07-31T01:18:40.695Z,67.80
2018-07-31T01:21:08.034Z,67.50
2018-07-31T01:23:35.358Z,67.40
2018-07-31T01:26:02.667Z,68.30
2018-07-31T01:28:29.995Z,68.30
2018-07-31T01:30:57.306Z,67.50
2018-07-31T01:33:24.617Z,67.80
2018-07-31T01:35:51.939Z,67.80
2018-07-31T01:38:19.258Z,67.50
2018-07-31T01:40:46.602Z,68.00
2018-07-31T01:43:14.003Z,68.30
2018-07-31T01:45:41.350Z,68.00
2018-07-31T01:48:08.751Z,67.90
2018-07-31T01:50:36.379Z,67.80
2018-07-31T01:53:03.708Z,68.30
2018-07-31T01:55:31.017Z,70.50
2018-07-31T01:57:58.340Z,70.10
2018-07-31T02:00:25.665Z,70.60
2018-07-31T02:02:53.003Z,70.20
2018-07-31T02:05:20.462Z,70.00
2018-07-31T02:07:48.104Z,69.40
2018-07-31T02:10:15.442Z,69.40
2018-07-31T02:12:42.737Z,70.00
2018-07-31T02:15:10.072Z,69.90
2018-07-31T02:17:37.382Z,69.40
2018-07-31T02:20:04.705Z,69.50
2018-07-31T02:22:32.003Z,69.70
2018-07-31T02:25:00.139Z,70.50
2018-07-31T02:27:27.460Z,70.20
2018-07-31T02:29:54.765Z,70.40
2018-07-31T02:32:22.103Z,69.70
2018-07-31T02:34:49.503Z,69.80
2018-07-31T02:37:16.846Z,70.10
2018-07-31T02:39:44.163Z,69.90
2018-07-31T02:42:11.500Z,69.60
2018-07-31T02:44:38.980Z,69.70
2018-07-31T02:47:06.320Z,69.70
2018-07-31T02:49:33.631Z,69.40
2018-07-31T02:52:00.946Z,69.50
2018-07-31T02:54:28.276Z,70.40
2018-07-31T02:56:55.574Z,70.90
2018-07-31T02:59:22.931Z,70.50
2018-07-31T03:01:50.315Z,71.90
2018-07-31T03:04:17.680Z,70.50
2018-07-31T03:06:44.997Z,70.30
2018-07-31T03:09:12.322Z,71.00
2018-07-31T03:11:39.633Z,71.40
2018-07-31T03:14:06.987Z,71.10
2018-07-31T03:16:34.391Z,71.10
2018-07-31T03:19:01.803Z,71.40
2018-07-31T03:21:29.137Z,71.90
2018-07-31T03:23:56.471Z,70.80
2018-07-31T03:26:23.782Z,71.20
2018-07-31T03:28:52.263Z,70.70
2018-07-31T03:31:19.651Z,71.10
2018-07-31T03:33:48.418Z,71.20
2018-07-31T03:36:15.739Z,71.40
2018-07-31T03:38:43.048Z,71.30
2018-07-31T03:41:10.367Z,71.90
2018-07-31T03:43:37.699Z,71.50
2018-07-31T03:46:05.028Z,72.50
2018-07-31T03:48:32.453Z,72.20
2018-07-31T03:50:59.778Z,72.20
2018-07-31T03:53:27.119Z,72.40
2018-07-31T03:55:54.451Z,72.40
2018-07-31T03:58:21.786Z,72.50
2018-07-31T04:00:49.104Z,72.80
2018-07-31T04:03:16.449Z,72.50
2018-07-31T04:05:43.781Z,72.90
2018-07-31T04:08:11.072Z,73.30
2018-07-31T04:10:38.395Z,72.80
2018-07-31T04:13:05.718Z,72.30
2018-07-31T04:15:33.053Z,73.00
2018-07-31T04:18:00.349Z,73.10
2018-07-31T04:20:27.710Z,73.80
2018-07-31T04:22:55.037Z,73.50
2018-07-31T04:25:22.349Z,73.70
2018-07-31T04:27:49.691Z,73.10
2018-07-31T04:30:17.018Z,72.90
2018-07-31T04:32:44.334Z,72.90
2018-07-31T04:35:11.647Z,74.00
2018-07-31T04:37:38.973Z,73.90
2018-07-31T04:40:06.309Z,73.30
2018-07-31T04:42:33.644Z,72.80
2018-07-31T04:45:00.947Z,73.00
2018-07-31T04:47:28.315Z,73.50
2018-07-31T04:49:55.640Z,73.50
2018-07-31T04:52:22.951Z,73.50
2018-07-31T04:54:50.280Z,73.50
2018-07-31T04:57:17.672Z,73.10
2018-07-31T04:59:44.986Z,72.90
2018-07-31T05:02:12.303Z,73.10
2018-07-31T05:04:39.638Z,73.20
2018-07-31T05:07:07.000Z,72.70
2018-07-31T05:09:34.342Z,72.40
2018-07-31T05:12:01.655Z,71.90
2018-07-31T05:14:28.995Z,71.50
2018-07-31T05:16:56.299Z,71.50
2018-07-31T05:19:23.640Z,71.00
2018-07-31T05:21:51.177Z,71.20
2018-07-31T05:24:18.525Z,70.90
2018-07-31T05:26:45.868Z,70.70
2018-07-31T05:29:13.397Z,70.60
2018-07-31T05:31:40.731Z,70.10
2018-07-31T05:34:08.062Z,69.70
2018-07-31T05:36:35.446Z,69.40
2018-07-31T05:39:04.853Z,69.30
2018-07-31T05:41:32.227Z,69.10
2018-07-31T05:43:59.546Z,69.00
2018-07-31T05:46:26.876Z,69.00
2018-07-31T05:48:54.219Z,68.90
2018-07-31T05:51:21.556Z,68.40
2018-07-31T05:53:48.960Z,67.80
2018-07-31T05:56:16.267Z,67.90
2018-07-31T05:58:43.598Z,67.20
2018-07-31T06:01:10.932Z,67.60
2018-07-31T06:03:38.349Z,67.90
2018-07-31T06:06:05.663Z,68.40
2018-07-31T06:08:32.978Z,67.90
2018-07-31T06:11:00.286Z,68.20
2018-07-31T06:13:27.607Z,68.00
2018-07-31T06:15:54.956Z,68.00
2018-07-31T06:18:22.325Z,67.60
2018-07-31T06:20:49.704Z,67.60
2018-07-31T06:23:17.028Z,67.60
2018-07-31T06:25:44.344Z,67.50
2018-07-31T06:28:11.693Z,67.70
2018-07-31T06:30:39.063Z,67.70
2018-07-31T06:33:06.416Z,68.00
2018-07-31T06:35:33.744Z,67.80
2018-07-31T06:38:01.058Z,67.10
2018-07-31T06:40:28.418Z,67.10
2018-07-31T06:42:55.772Z,67.20
2018-07-31T06:45:23.088Z,66.80
2018-07-31T06:47:50.434Z,67.00
2018-07-31T06:50:17.792Z,67.10
2018-07-31T06:52:45.160Z,67.60
2018-07-31T06:55:12.465Z,67.30
2018-07-31T06:57:39.851Z,66.70
2018-07-31T07:00:07.191Z,66.70
2018-07-31T07:02:34.579Z,67.10
2018-07-31T07:05:01.918Z,66.90
2018-07-31T07:07:29.579Z,66.30
2018-07-31T07:09:56.910Z,66.00
2018-07-31T07:12:24.197Z,65.90
2018-07-31T07:14:51.570Z,65.60
2018-07-31T07:17:18.951Z,64.70
2018-07-31T07:19:46.263Z,65.20
2018-07-31T07:22:13.586Z,64.10
2018-07-31T07:24:40.886Z,64.20
2018-07-31T07:27:08.246Z,62.90
2018-07-31T07:29:35.590Z,62.90
2018-07-31T07:32:02.920Z,63.20
2018-07-31T07:34:30.251Z,63.50
2018-07-31T07:36:57.579Z,64.40
2018-07-31T07:39:24.927Z,63.90
2018-07-31T07:41:52.277Z,64.00
2018-07-31T07:44:19.641Z,63.10
2018-07-31T07:46:46.998Z,62.90
2018-07-31T07:49:14.362Z,61.10
2018-07-31T07:51:41.711Z,61.50
2018-07-31T07:54:09.142Z,61.30
2018-07-31T07:56:36.401Z,61.60
2018-07-31T07:59:03.710Z,61.90
2018-07-31T08:01:31.119Z,61.60
2018-07-31T08:03:58.464Z,61.20
2018-07-31T08:06:25.871Z,61.30
2018-07-31T08:08:53.178Z,60.50
2018-07-31T08:11:20.560Z,60.80
2018-07-31T08:13:47.975Z,60.40
2018-07-31T08:16:15.271Z,60.40
2018-07-31T08:18:42.595Z,59.90
2018-07-31T08:21:09.927Z,59.50
2018-07-31T08:23:37.275Z,58.90
2018-07-31T08:26:05.040Z,58.60
2018-07-31T08:28:32.382Z,58.40
2018-07-31T08:30:59.704Z,58.30
2018-07-31T08:33:27.239Z,58.40
2018-07-31T08:35:54.563Z,58.10
2018-07-31T08:38:21.896Z,57.50
2018-07-31T08:40:49.382Z,57.50
2018-07-31T08:43:16.723Z,56.10
2018-07-31T08:45:44.069Z,56.20
2018-07-31T08:48:11.490Z,55.50
2018-07-31T08:50:38.909Z,55.30
2018-07-31T08:53:06.207Z,54.70
2018-07-31T08:55:33.533Z,54.60
2018-07-31T09:00:28.059Z,52.80
2018-07-31T09:02:55.377Z,53.30
2018-07-31T09:05:22.678Z,53.60
2018-07-31T09:07:50.054Z,53.60
2018-07-31T09:10:17.382Z,54.20
2018-07-31T09:12:44.734Z,54.40
2018-07-31T09:15:12.082Z,54.20
2018-07-31T09:17:39.391Z,54.60
2018-07-31T09:20:06.812Z,53.30
2018-07-31T09:25:01.573Z,52.90
2018-07-31T09:27:28.891Z,53.10
2018-07-31T09:29:56.241Z,52.50
2018-07-31T09:32:23.565Z,52.10
2018-07-31T09:34:50.941Z,51.60
2018-07-31T09:37:18.257Z,51.60
2018-07-31T09:39:45.582Z,51.30
2018-07-31T09:42:12.885Z,51.00
2018-07-31T09:44:40.265Z,50.70
2018-07-31T09:47:07.597Z,50.60
2018-07-31T09:49:34.938Z,50.90
2018-07-31T09:52:02.283Z,51.30
2018-07-31T09:54:29.586Z,51.10
2018-07-31T09:56:56.963Z,51.20
2018-07-31T09:59:24.266Z,50.50
2018-07-31T10:01:51.604Z,50.60
2018-07-31T10:04:18.949Z,50.60
2018-07-31T10:06:46.259Z,51.20
2018-07-31T10:09:13.543Z,50.60
2018-07-31T10:11:40.927Z,50.90
2018-07-31T10:14:08.243Z,50.40
2018-07-31T10:16:35.554Z,50.40
2018-07-31T10:19:02.975Z,49.80
2018-07-31T10:21:30.283Z,49.00
2018-07-31T10:23:57.613Z,49.60
2018-07-31T10:26:24.948Z,49.80
2018-07-31T10:28:52.291Z,49.30
2018-07-31T10:31:19.651Z,49.60
2018-07-31T10:33:46.960Z,49.30
2018-07-31T10:36:14.307Z,49.40
2018-07-31T10:38:41.671Z,48.90
2018-07-31T10:41:09.007Z,49.40
2018-07-31T10:43:36.330Z,49.00
2018-07-31T10:46:03.664Z,48.90
2018-07-31T10:48:30.991Z,48.70
2018-07-31T10:50:58.338Z,48.00
2018-07-31T10:53:25.667Z,47.00
2018-07-31T10:55:53.006Z,47.60
2018-07-31T10:58:20.414Z,47.60
2018-07-31T11:00:47.801Z,47.10
2018-07-31T11:03:15.143Z,46.20
2018-07-31T11:05:42.450Z,46.30
2018-07-31T11:08:09.763Z,47.00
2018-07-31T11:10:37.076Z,48.10
2018-07-31T11:13:04.411Z,47.30
2018-07-31T11:15:31.738Z,47.20
2018-07-31T11:17:59.062Z,46.60
2018-07-31T11:20:26.405Z,46.80
2018-07-31T11:22:53.742Z,46.50
2018-07-31T11:25:21.114Z,46.70
2018-07-31T11:27:48.465Z,46.10
2018-07-31T11:30:15.787Z,47.50
2018-07-31T11:32:43.121Z,47.30
2018-07-31T11:35:10.436Z,47.40
2018-07-31T11:37:37.790Z,47.70
2018-07-31T11:40:05.115Z,48.10
2018-07-31T11:44:59.614Z,47.00
2018-07-31T11:47:26.907Z,47.70
2018-07-31T11:52:21.447Z,48.10
2018-07-31T11:54:49.110Z,48.40
2018-07-31T11:57:16.432Z,48.30
2018-07-31T11:59:43.757Z,47.60
2018-07-31T12:02:11.066Z,48.30
2018-07-31T12:04:38.398Z,48.10
2018-07-31T12:07:05.707Z,47.40
2018-07-31T12:09:33.024Z,47.30
2018-07-31T12:12:00.422Z,46.80
2018-07-31T12:14:27.737Z,47.00
2018-07-31T12:16:55.025Z,47.20
2018-07-31T12:19:22.327Z,46.90
2018-07-31T12:21:49.652Z,46.90
2018-07-31T12:24:16.996Z,46.80
2018-07-31T12:26:44.331Z,47.40
2018-07-31T12:29:11.651Z,47.30
2018-07-31T12:31:38.967Z,47.20
2018-07-31T12:34:06.311Z,47.10
2018-07-31T12:36:33.622Z,47.10
2018-07-31T12:39:00.965Z,47.40
2018-07-31T12:41:28.300Z,46.80
2018-07-31T12:43:55.617Z,46.20
2018-07-31T12:46:22.994Z,46.70
2018-07-31T12:48:50.343Z,47.80
2018-07-31T12:51:18.010Z,47.50
2018-07-31T12:53:45.318Z,47.00
2018-07-31T12:56:12.676Z,46.60
2018-07-31T12:58:40.028Z,46.90
2018-07-31T13:01:07.435Z,47.30
2018-07-31T13:03:34.798Z,47.60
2018-07-31T13:06:02.106Z,48.30
2018-07-31T13:08:29.431Z,48.40
2018-07-31T13:10:56.757Z,46.60
2018-07-31T13:13:24.124Z,47.20
2018-07-31T13:15:51.489Z,47.80
2018-07-31T13:18:19.018Z,47.00
2018-07-31T13:20:46.344Z,47.20
2018-07-31T13:23:13.702Z,47.80
2018-07-31T13:25:41.036Z,47.60
2018-07-31T13:28:08.398Z,47.30
2018-07-31T13:30:35.747Z,47.20
2018-07-31T13:33:03.102Z,46.40
2018-07-31T13:35:30.436Z,46.70
2018-07-31T13:37:57.762Z,45.40
2018-07-31T13:40:25.099Z,44.50
2018-07-31T13:42:52.525Z,44.80
2018-07-31T13:47:47.027Z,45.60
2018-07-31T13:50:14.377Z,45.70
2018-07-31T13:52:41.704Z,46.00
2018-07-31T13:55:09.075Z,46.40
2018-07-31T13:57:36.363Z,46.40
2018-07-31T14:00:04.286Z,46.40
2018-07-31T14:02:31.748Z,46.20
2018-07-31T14:04:59.228Z,46.40
2018-07-31T14:07:26.548Z,46.70
2018-07-31T14:09:54.005Z,45.70
2018-07-31T14:12:21.450Z,45.80
2018-07-31T14:14:48.855Z,46.00
2018-07-31T14:17:16.291Z,45.30
2018-07-31T14:19:43.633Z,46.00
2018-07-31T14:22:10.964Z,45.20
2018-07-31T14:24:38.338Z,44.90
2018-07-31T14:27:05.652Z,45.10
2018-07-31T14:29:33.622Z,45.60
2018-07-31T14:32:00.935Z,45.60
2018-07-31T14:34:28.277Z,45.70
2018-07-31T14:36:55.607Z,45.60
2018-07-31T14:39:22.999Z,45.90
2018-07-31T14:41:50.445Z,44.80
2018-07-31T14:44:17.778Z,44.40
2018-07-31T14:46:45.107Z,44.80
2018-07-31T14:49:12.448Z,45.20
2018-07-31T14:51:39.806Z,43.90
2018-07-31T14:54:07.172Z,44.50
2018-07-31T14:56:34.579Z,44.70
2018-07-31T14:59:01.900Z,44.80
2018-07-31T15:01:29.428Z,44.40
2018-07-31T15:03:56.739Z,43.60
2018-07-31T15:06:24.085Z,44.10
2018-07-31T15:08:52.624Z,43.00
2018-07-31T15:11:20.274Z,43.90
2018-07-31T15:13:47.607Z,44.70
2018-07-31T15:16:14.940Z,44.30
2018-07-31T15:18:42.238Z,44.50
2018-07-31T15:21:09.797Z,44.30
2018-07-31T15:23:37.180Z,44.00
2018-07-31T15:26:04.800Z,43.40
2018-07-31T15:28:32.160Z,43.90
2018-07-31T15:33:43.873Z,42.90
2018-07-31T15:36:11.223Z,42.90
2018-07-31T15:38:38.543Z,43.70
2018-07-31T15:41:05.890Z,44.20
2018-07-31T15:43:33.234Z,44.40
2018-07-31T15:46:00.593Z,44.70
2018-07-31T15:48:27.950Z,44.40
2018-07-31T15:50:55.279Z,44.50
2018-07-31T15:53:22.668Z,44.60
2018-07-31T15:55:50.277Z,45.10
2018-07-31T15:58:17.657Z,44.20
2018-07-31T16:00:45.044Z,45.00
2018-07-31T16:03:12.343Z,44.40
2018-07-31T16:05:39.759Z,45.20
2018-07-31T16:08:07.183Z,44.60
2018-07-31T16:10:34.594Z,45.10
2018-07-31T16:13:02.318Z,45.20
2018-07-31T16:15:29.788Z,43.90
2018-07-31T16:17:57.078Z,44.10
2018-07-31T16:20:24.519Z,43.60
2018-07-31T16:22:51.891Z,43.30
2018-07-31T16:27:46.699Z,43.20
2018-07-31T16:30:14.112Z,42.40
2018-07-31T16:32:41.469Z,42.50
2018-07-31T16:37:36.002Z,42.40
2018-07-31T16:40:03.701Z,42.20
2018-07-31T16:42:31.094Z,41.50
2018-07-31T16:44:58.433Z,40.90
2018-07-31T16:47:25.739Z,40.70
2018-07-31T16:49:53.807Z,40.70
2018-07-31T16:52:21.247Z,39.20
2018-07-31T16:57:15.754Z,38.70
2018-07-31T16:59:43.145Z,37.90
2018-07-31T17:02:10.492Z,38.10
2018-07-31T17:04:37.812Z,38.00
2018-07-31T17:07:05.205Z,37.00
2018-07-31T17:09:32.521Z,38.10
2018-07-31T17:11:59.855Z,39.50
2018-07-31T17:14:27.259Z,38.70
2018-07-31T17:16:54.581Z,39.50
2018-07-31T17:19:21.928Z,40.70
2018-07-31T17:21:49.314Z,40.60
2018-07-31T17:24:16.637Z,41.20
2018-07-31T17:26:44.035Z,41.60
2018-07-31T17:29:11.359Z,42.20
2018-07-31T17:31:38.723Z,42.50
2018-07-31T17:34:06.062Z,42.30
2018-07-31T17:36:33.406Z,41.70
2018-07-31T17:39:00.733Z,41.40
2018-07-31T17:41:28.109Z,41.70
2018-07-31T17:43:55.433Z,41.70
2018-07-31T17:46:22.754Z,41.80
2018-07-31T17:48:50.340Z,42.40
2018-07-31T17:51:17.663Z,42.70
2018-07-31T17:53:45.039Z,43.30
2018-07-31T17:56:12.406Z,42.90
2018-07-31T17:58:39.751Z,42.90
2018-07-31T18:01:07.076Z,43.50
2018-07-31T18:03:34.593Z,43.10
2018-07-31T18:06:01.852Z,43.30
2018-07-31T18:08:29.199Z,43.20
2018-07-31T18:10:56.687Z,43.20
2018-07-31T18:13:24.000Z,43.10
2018-07-31T18:15:51.326Z,43.50
2018-07-31T18:18:18.711Z,44.20
2018-07-31T18:20:46.127Z,44.60
2018-07-31T18:23:13.600Z,44.60
2018-07-31T18:25:40.981Z,44.70
2018-07-31T18:28:08.291Z,45.30
2018-07-31T18:30:35.630Z,45.50
2018-07-31T18:33:02.995Z,45.90
2018-07-31T18:35:30.297Z,46.10
2018-07-31T18:37:57.622Z,46.20
2018-07-31T18:40:25.059Z,46.50
2018-07-31T18:42:52.433Z,46.80
2018-07-31T18:45:19.919Z,47.00
2018-07-31T18:47:47.328Z,47.20
2018-07-31T18:50:14.672Z,47.40
2018-07-31T18:52:42.293Z,47.70
2018-07-31T18:55:09.587Z,47.90
2018-07-31T18:57:36.911Z,48.00
2018-07-31T19:00:04.806Z,48.10
2018-07-31T19:02:32.138Z,48.30
2018-07-31T19:04:59.450Z,48.10
2018-07-31T19:07:26.790Z,48.60
2018-07-31T19:09:54.367Z,48.80
2018-07-31T19:12:21.669Z,49.30
2018-07-31T19:14:49.030Z,50.30
2018-07-31T19:17:16.664Z,50.40
2018-07-31T19:19:44.072Z,50.80
2018-07-31T19:22:12.214Z,51.30
2018-07-31T19:24:39.578Z,51.60
2018-07-31T19:27:07.091Z,52.20
2018-07-31T19:29:34.419Z,53.80
2018-07-31T19:32:01.747Z,54.20
2018-07-31T19:34:29.171Z,56.60
2018-07-31T19:36:56.516Z,55.50
2018-07-31T19:39:23.829Z,56.10
2018-07-31T19:41:51.237Z,56.50
2018-07-31T19:44:18.576Z,56.90
2018-07-31T19:46:45.904Z,56.60
2018-07-31T19:49:13.347Z,56.90
2018-07-31T19:51:40.683Z,56.70
2018-07-31T19:54:07.990Z,57.00
2018-07-31T19:56:35.330Z,57.10
2018-07-31T19:59:02.653Z,57.40
2018-07-31T20:01:29.983Z,57.20
2018-07-31T20:03:57.340Z,56.90
2018-07-31T20:08:51.828Z,57.50
2018-07-31T20:11:19.149Z,57.50
2018-07-31T20:13:46.477Z,57.50
2018-07-31T20:16:13.999Z,57.40
2018-07-31T20:18:41.358Z,57.30
2018-07-31T20:21:08.737Z,57.30
2018-07-31T20:23:36.067Z,57.50
2018-07-31T20:26:03.367Z,57.40
2018-07-31T20:28:30.845Z,57.40
2018-07-31T20:30:58.147Z,57.40
2018-07-31T20:33:25.474Z,57.40
2018-07-31T20:35:52.862Z,57.60
2018-07-31T20:38:20.179Z,57.60
2018-07-31T20:40:47.636Z,57.60
2018-07-31T20:43:14.957Z,57.90
2018-07-31T20:45:42.360Z,57.60
2018-07-31T20:48:09.661Z,57.80
2018-07-31T20:50:36.991Z,57.80
2018-07-31T20:55:31.523Z,57.60
2018-07-31T20:57:58.875Z,57.80
2018-07-31T21:00:26.245Z,57.60
2018-07-31T21:02:53.589Z,57.80
2018-07-31T21:05:20.913Z,57.60
2018-07-31T21:07:48.233Z,57.60
2018-07-31T21:10:15.613Z,58.10
2018-07-31T21:12:42.925Z,57.90
2018-07-31T21:15:10.255Z,57.60
2018-07-31T21:17:37.588Z,58.10
2018-07-31T21:20:04.888Z,58.00
2018-07-31T21:22:32.238Z,57.60
2018-07-31T21:24:59.559Z,57.40
2018-07-31T21:29:54.090Z,57.40
2018-07-31T21:32:21.409Z,57.30
2018-07-31T21:34:48.719Z,57.30
2018-07-31T21:37:16.080Z,57.20
2018-07-31T21:39:43.439Z,57.30
2018-07-31T21:42:10.840Z,57.30
2018-07-31T21:44:38.159Z,57.10
2018-07-31T21:47:05.526Z,57.10
2018-07-31T21:49:32.828Z,57.30
2018-07-31T21:52:00.244Z,57.20
2018-07-31T21:54:27.553Z,57.30
2018-07-31T21:56:55.034Z,57.20
2018-07-31T21:59:22.359Z,57.40
2018-07-31T22:01:49.679Z,57.50
2018-07-31T22:04:17.050Z,57.40
2018-07-31T22:06:44.352Z,57.50
2018-07-31T22:09:11.768Z,57.50
2018-07-31T22:11:39.061Z,57.20
2018-07-31T22:14:06.562Z,57.50
2018-07-31T22:16:33.923Z,57.00
2018-07-31T22:19:01.261Z,57.10
2018-07-31T22:21:28.570Z,57.10
2018-07-31T22:23:55.953Z,57.20
2018-07-31T22:26:23.261Z,57.20
2018-07-31T22:28:50.696Z,57.20
2018-07-31T22:31:17.881Z,57.00
2018-07-31T22:33:45.211Z,57.30
2018-07-31T22:36:12.555Z,57.20
2018-07-31T22:38:39.859Z,57.40
2018-07-31T22:41:07.175Z,57.20
2018-07-31T22:43:34.549Z,57.60
2018-07-31T22:46:01.840Z,57.50
2018-07-31T22:48:29.152Z,57.70
2018-07-31T22:50:56.499Z,57.80
2018-07-31T22:53:23.806Z,57.70
2018-07-31T22:55:51.142Z,57.70
2018-07-31T22:58:18.467Z,57.90
2018-07-31T23:00:45.773Z,57.90
2018-07-31T23:03:13.134Z,58.40
2018-07-31T23:05:40.438Z,58.10
2018-07-31T23:08:07.778Z,58.00
2018-07-31T23:10:35.235Z,58.00
2018-07-31T23:13:02.623Z,57.70
2018-07-31T23:15:29.913Z,58.00
2018-07-31T23:17:57.221Z,58.10
2018-07-31T23:20:24.531Z,58.10
2018-07-31T23:22:51.864Z,58.10
2018-07-31T23:25:19.165Z,58.20
2018-07-31T23:27:46.469Z,58.00
2018-07-31T23:30:13.879Z,57.90
2018-07-31T23:32:41.191Z,57.70
2018-07-31T23:37:35.735Z,57.80
2018-07-31T23:40:03.458Z,57.60
2018-07-31T23:42:30.762Z,57.40
2018-07-31T23:45:05.877Z,58.00
2018-07-31T23:47:33.223Z,58.00
2018-07-31T23:50:00.548Z,57.40
2018-07-31T23:52:27.870Z,57.30
2018-07-31T23:54:55.183Z,57.60
2018-07-31T23:57:22.470Z,57.80
2018-07-31T23:59:49.774Z,58.40
